sensor_id;sensor_type;location;lat;lon;timestamp;temperature;humidity
3330;DHT22;1677;49.576;10.990;2022-07-29T00:01:06;24.90;41.20
3330;DHT22;1677;49.576;10.990;2022-07-29T00:03:32;25.30;39.70
3330;DHT22;1677;49.576;10.990;2022-07-29T00:05:58;25.40;40.00
3330;DHT22;1677;49.576;10.990;2022-07-29T00:08:23;25.20;39.60
3330;DHT22;1677;49.576;10.990;2022-07-29T00:10:49;24.90;40.20
3330;DHT22;1677;49.576;10.990;2022-07-29T00:13:14;24.50;41.00
3330;DHT22;1677;49.576;10.990;2022-07-29T00:15:40;24.10;41.70
3330;DHT22;1677;49.576;10.990;2022-07-29T00:18:06;23.80;41.90
3330;DHT22;1677;49.576;10.990;2022-07-29T00:20:31;23.60;42.30
3330;DHT22;1677;49.576;10.990;2022-07-29T00:22:57;23.40;42.70
3330;DHT22;1677;49.576;10.990;2022-07-29T00:25:23;23.20;43.10
3330;DHT22;1677;49.576;10.990;2022-07-29T00:27:48;23.10;43.40
3330;DHT22;1677;49.576;10.990;2022-07-29T00:30:14;23.00;43.20
3330;DHT22;1677;49.576;10.990;2022-07-29T00:32:40;22.90;43.40
3330;DHT22;1677;49.576;10.990;2022-07-29T00:35:06;23.20;43.30
3330;DHT22;1677;49.576;10.990;2022-07-29T00:38:04;23.90;42.10
3330;DHT22;1677;49.576;10.990;2022-07-29T00:40:29;24.60;40.50
3330;DHT22;1677;49.576;10.990;2022-07-29T00:42:55;25.10;39.50
3330;DHT22;1677;49.576;10.990;2022-07-29T00:45:20;25.10;39.10
3330;DHT22;1677;49.576;10.990;2022-07-29T00:47:47;25.00;39.80
3330;DHT22;1677;49.576;10.990;2022-07-29T00:50:13;24.70;39.90
3330;DHT22;1677;49.576;10.990;2022-07-29T00:52:41;24.30;40.40
3330;DHT22;1677;49.576;10.990;2022-07-29T00:55:13;23.90;41.10
3330;DHT22;1677;49.576;10.990;2022-07-29T00:57:40;23.70;41.50
3330;DHT22;1677;49.576;10.990;2022-07-29T01:00:08;23.40;42.40
3330;DHT22;1677;49.576;10.990;2022-07-29T01:02:35;23.30;42.50
3330;DHT22;1677;49.576;10.990;2022-07-29T01:05:02;23.20;42.70
3330;DHT22;1677;49.576;10.990;2022-07-29T01:07:30;23.00;43.20
3330;DHT22;1677;49.576;10.990;2022-07-29T01:09:58;22.90;43.50
3330;DHT22;1677;49.576;10.990;2022-07-29T01:12:27;22.90;43.60
3330;DHT22;1677;49.576;10.990;2022-07-29T01:14:54;23.20;43.20
3330;DHT22;1677;49.576;10.990;2022-07-29T01:17:38;24.00;41.70
3330;DHT22;1677;49.576;10.990;2022-07-29T01:20:11;24.70;40.30
3330;DHT22;1677;49.576;10.990;2022-07-29T01:25:54;25.10;39.00
3330;DHT22;1677;49.576;10.990;2022-07-29T01:29:05;24.90;39.50
3330;DHT22;1677;49.576;10.990;2022-07-29T01:31:43;24.30;40.30
3330;DHT22;1677;49.576;10.990;2022-07-29T01:34:13;23.70;41.30
3330;DHT22;1677;49.576;10.990;2022-07-29T01:36:48;23.50;41.90
3330;DHT22;1677;49.576;10.990;2022-07-29T01:39:31;23.30;42.60
3330;DHT22;1677;49.576;10.990;2022-07-29T01:45:10;22.90;44.00
3330;DHT22;1677;49.576;10.990;2022-07-29T01:47:43;22.80;44.50
3330;DHT22;1677;49.576;10.990;2022-07-29T01:50:14;22.70;45.40
3330;DHT22;1677;49.576;10.990;2022-07-29T01:52:56;22.70;44.90
3330;DHT22;1677;49.576;10.990;2022-07-29T01:55:27;23.50;44.30
3330;DHT22;1677;49.576;10.990;2022-07-29T01:57:54;24.30;42.70
3330;DHT22;1677;49.576;10.990;2022-07-29T02:00:22;24.70;41.60
3330;DHT22;1677;49.576;10.990;2022-07-29T02:02:49;25.00;41.20
3330;DHT22;1677;49.576;10.990;2022-07-29T02:05:19;24.90;41.30
3330;DHT22;1677;49.576;10.990;2022-07-29T02:07:47;24.60;41.70
3330;DHT22;1677;49.576;10.990;2022-07-29T02:10:14;24.20;42.50
3330;DHT22;1677;49.576;10.990;2022-07-29T02:12:42;23.80;43.80
3330;DHT22;1677;49.576;10.990;2022-07-29T02:15:09;23.50;44.30
3330;DHT22;1677;49.576;10.990;2022-07-29T02:17:47;23.20;45.10
3330;DHT22;1677;49.576;10.990;2022-07-29T02:20:14;22.90;45.40
3330;DHT22;1677;49.576;10.990;2022-07-29T02:22:41;22.70;46.00
3330;DHT22;1677;49.576;10.990;2022-07-29T02:25:10;22.50;46.80
3330;DHT22;1677;49.576;10.990;2022-07-29T02:27:37;22.30;47.10
3330;DHT22;1677;49.576;10.990;2022-07-29T02:30:05;22.30;47.50
3330;DHT22;1677;49.576;10.990;2022-07-29T02:32:34;22.50;47.30
3330;DHT22;1677;49.576;10.990;2022-07-29T02:35:01;23.10;46.70
3330;DHT22;1677;49.576;10.990;2022-07-29T02:37:28;23.70;45.00
3330;DHT22;1677;49.576;10.990;2022-07-29T02:39:55;24.30;43.50
3330;DHT22;1677;49.576;10.990;2022-07-29T02:42:22;24.40;42.50
3330;DHT22;1677;49.576;10.990;2022-07-29T02:44:49;24.30;43.50
3330;DHT22;1677;49.576;10.990;2022-07-29T02:50:27;23.60;44.20
3330;DHT22;1677;49.576;10.990;2022-07-29T02:53:02;23.10;45.40
3330;DHT22;1677;49.576;10.990;2022-07-29T02:55:40;22.80;46.10
3330;DHT22;1677;49.576;10.990;2022-07-29T02:58:27;22.50;46.80
3330;DHT22;1677;49.576;10.990;2022-07-29T03:00:58;22.30;47.20
3330;DHT22;1677;49.576;10.990;2022-07-29T03:03:26;22.10;47.90
3330;DHT22;1677;49.576;10.990;2022-07-29T03:05:56;22.00;48.40
3330;DHT22;1677;49.576;10.990;2022-07-29T03:08:23;21.90;48.90
3330;DHT22;1677;49.576;10.990;2022-07-29T03:10:50;22.00;49.20
3330;DHT22;1677;49.576;10.990;2022-07-29T03:13:16;22.50;48.50
3330;DHT22;1677;49.576;10.990;2022-07-29T03:15:44;23.20;46.90
3330;DHT22;1677;49.576;10.990;2022-07-29T03:18:10;23.70;45.60
3330;DHT22;1677;49.576;10.990;2022-07-29T03:20:37;23.90;44.80
3330;DHT22;1677;49.576;10.990;2022-07-29T03:23:03;24.00;44.30
3330;DHT22;1677;49.576;10.990;2022-07-29T03:25:29;23.70;44.90
3330;DHT22;1677;49.576;10.990;2022-07-29T03:27:55;23.50;45.20
3330;DHT22;1677;49.576;10.990;2022-07-29T03:30:22;23.10;46.40
3330;DHT22;1677;49.576;10.990;2022-07-29T03:32:51;22.70;47.30
3330;DHT22;1677;49.576;10.990;2022-07-29T03:35:17;22.40;48.40
3330;DHT22;1677;49.576;10.990;2022-07-29T03:37:44;22.00;49.30
3330;DHT22;1677;49.576;10.990;2022-07-29T03:40:13;21.90;49.30
3330;DHT22;1677;49.576;10.990;2022-07-29T03:42:40;21.70;49.40
3330;DHT22;1677;49.576;10.990;2022-07-29T03:45:18;21.70;49.90
3330;DHT22;1677;49.576;10.990;2022-07-29T03:47:50;21.40;50.40
3330;DHT22;1677;49.576;10.990;2022-07-29T03:50:17;21.40;50.60
3330;DHT22;1677;49.576;10.990;2022-07-29T03:52:45;21.90;50.30
3330;DHT22;1677;49.576;10.990;2022-07-29T03:55:10;22.70;48.50
3330;DHT22;1677;49.576;10.990;2022-07-29T03:57:38;23.20;47.20
3330;DHT22;1677;49.576;10.990;2022-07-29T04:00:05;23.60;46.60
3330;DHT22;1677;49.576;10.990;2022-07-29T04:02:32;23.50;46.20
3330;DHT22;1677;49.576;10.990;2022-07-29T04:04:58;23.30;46.50
3330;DHT22;1677;49.576;10.990;2022-07-29T04:07:24;22.90;47.60
3330;DHT22;1677;49.576;10.990;2022-07-29T04:09:49;22.50;48.10
3330;DHT22;1677;49.576;10.990;2022-07-29T04:12:15;22.10;48.50
3330;DHT22;1677;49.576;10.990;2022-07-29T04:14:40;21.90;49.00
3330;DHT22;1677;49.576;10.990;2022-07-29T04:17:06;21.60;49.70
3330;DHT22;1677;49.576;10.990;2022-07-29T04:19:32;21.50;50.50
3330;DHT22;1677;49.576;10.990;2022-07-29T04:21:58;21.30;50.60
3330;DHT22;1677;49.576;10.990;2022-07-29T04:24:25;21.20;51.20
3330;DHT22;1677;49.576;10.990;2022-07-29T04:26:50;21.00;51.70
3330;DHT22;1677;49.576;10.990;2022-07-29T04:29:16;20.90;52.40
3330;DHT22;1677;49.576;10.990;2022-07-29T04:31:42;21.20;51.50
3330;DHT22;1677;49.576;10.990;2022-07-29T04:34:08;21.90;50.60
3330;DHT22;1677;49.576;10.990;2022-07-29T04:36:34;22.60;49.30
3330;DHT22;1677;49.576;10.990;2022-07-29T04:38:59;23.10;48.20
3330;DHT22;1677;49.576;10.990;2022-07-29T04:41:27;23.30;47.20
3330;DHT22;1677;49.576;10.990;2022-07-29T04:43:52;23.10;47.50
3330;DHT22;1677;49.576;10.990;2022-07-29T04:46:18;22.90;48.10
3330;DHT22;1677;49.576;10.990;2022-07-29T04:48:45;22.40;49.20
3330;DHT22;1677;49.576;10.990;2022-07-29T04:51:12;21.90;50.90
3330;DHT22;1677;49.576;10.990;2022-07-29T04:53:37;21.50;52.00
3330;DHT22;1677;49.576;10.990;2022-07-29T04:56:03;21.30;52.60
3330;DHT22;1677;49.576;10.990;2022-07-29T04:58:29;21.10;52.70
3330;DHT22;1677;49.576;10.990;2022-07-29T05:00:55;21.00;53.00
3330;DHT22;1677;49.576;10.990;2022-07-29T05:03:20;20.80;53.60
3330;DHT22;1677;49.576;10.990;2022-07-29T05:05:46;20.70;54.40
3330;DHT22;1677;49.576;10.990;2022-07-29T05:08:11;20.70;55.20
3330;DHT22;1677;49.576;10.990;2022-07-29T05:10:37;20.80;55.80
3330;DHT22;1677;49.576;10.990;2022-07-29T05:13:07;21.30;55.70
3330;DHT22;1677;49.576;10.990;2022-07-29T05:15:34;22.00;54.40
3330;DHT22;1677;49.576;10.990;2022-07-29T05:18:00;22.50;53.00
3330;DHT22;1677;49.576;10.990;2022-07-29T05:20:26;22.90;52.00
3330;DHT22;1677;49.576;10.990;2022-07-29T05:22:55;23.00;51.20
3330;DHT22;1677;49.576;10.990;2022-07-29T05:25:21;22.70;51.30
3330;DHT22;1677;49.576;10.990;2022-07-29T05:27:47;22.30;51.80
3330;DHT22;1677;49.576;10.990;2022-07-29T05:30:13;21.90;51.90
3330;DHT22;1677;49.576;10.990;2022-07-29T05:32:38;21.60;53.10
3330;DHT22;1677;49.576;10.990;2022-07-29T05:35:04;21.40;53.50
3330;DHT22;1677;49.576;10.990;2022-07-29T05:37:29;21.30;53.70
3330;DHT22;1677;49.576;10.990;2022-07-29T05:39:56;21.10;53.50
3330;DHT22;1677;49.576;10.990;2022-07-29T05:42:21;21.10;53.00
3330;DHT22;1677;49.576;10.990;2022-07-29T05:44:47;21.10;53.00
3330;DHT22;1677;49.576;10.990;2022-07-29T05:47:13;21.00;52.90
3330;DHT22;1677;49.576;10.990;2022-07-29T05:49:38;21.00;53.20
3330;DHT22;1677;49.576;10.990;2022-07-29T05:52:04;21.20;53.10
3330;DHT22;1677;49.576;10.990;2022-07-29T05:54:30;21.80;51.10
3330;DHT22;1677;49.576;10.990;2022-07-29T05:56:56;22.10;50.00
3330;DHT22;1677;49.576;10.990;2022-07-29T05:59:21;22.60;49.20
3330;DHT22;1677;49.576;10.990;2022-07-29T06:01:47;23.00;48.40
3330;DHT22;1677;49.576;10.990;2022-07-29T06:04:12;23.10;47.90
3330;DHT22;1677;49.576;10.990;2022-07-29T06:06:38;23.00;48.30
3330;DHT22;1677;49.576;10.990;2022-07-29T06:09:03;22.70;49.00
3330;DHT22;1677;49.576;10.990;2022-07-29T06:11:29;22.40;48.70
3330;DHT22;1677;49.576;10.990;2022-07-29T06:13:55;22.10;49.00
3330;DHT22;1677;49.576;10.990;2022-07-29T06:16:20;21.90;49.70
3330;DHT22;1677;49.576;10.990;2022-07-29T06:18:46;21.80;50.00
3330;DHT22;1677;49.576;10.990;2022-07-29T06:21:12;21.70;50.40
3330;DHT22;1677;49.576;10.990;2022-07-29T06:23:38;21.60;51.00
3330;DHT22;1677;49.576;10.990;2022-07-29T06:26:05;21.60;51.60
3330;DHT22;1677;49.576;10.990;2022-07-29T06:28:31;21.50;52.00
3330;DHT22;1677;49.576;10.990;2022-07-29T06:30:56;21.50;52.30
3330;DHT22;1677;49.576;10.990;2022-07-29T06:33:22;21.60;51.90
3330;DHT22;1677;49.576;10.990;2022-07-29T06:35:47;22.30;51.20
3330;DHT22;1677;49.576;10.990;2022-07-29T06:38:14;23.10;49.50
3330;DHT22;1677;49.576;10.990;2022-07-29T06:40:43;23.60;48.10
3330;DHT22;1677;49.576;10.990;2022-07-29T06:43:35;24.00;47.50
3330;DHT22;1677;49.576;10.990;2022-07-29T06:46:11;23.80;47.50
3330;DHT22;1677;49.576;10.990;2022-07-29T06:48:37;23.60;48.30
3330;DHT22;1677;49.576;10.990;2022-07-29T06:51:03;23.50;48.70
3330;DHT22;1677;49.576;10.990;2022-07-29T06:53:30;23.30;49.20
3330;DHT22;1677;49.576;10.990;2022-07-29T06:55:56;23.00;49.60
3330;DHT22;1677;49.576;10.990;2022-07-29T06:58:23;22.80;50.00
3330;DHT22;1677;49.576;10.990;2022-07-29T07:00:49;22.70;50.60
3330;DHT22;1677;49.576;10.990;2022-07-29T07:03:16;22.70;50.90
3330;DHT22;1677;49.576;10.990;2022-07-29T07:05:42;22.60;51.40
3330;DHT22;1677;49.576;10.990;2022-07-29T07:08:08;22.60;51.80
3330;DHT22;1677;49.576;10.990;2022-07-29T07:10:33;22.50;52.00
3330;DHT22;1677;49.576;10.990;2022-07-29T07:13:00;22.60;52.50
3330;DHT22;1677;49.576;10.990;2022-07-29T07:15:26;23.00;51.80
3330;DHT22;1677;49.576;10.990;2022-07-29T07:17:52;23.40;50.70
3330;DHT22;1677;49.576;10.990;2022-07-29T07:20:18;24.00;49.40
3330;DHT22;1677;49.576;10.990;2022-07-29T07:22:43;24.30;48.80
3330;DHT22;1677;49.576;10.990;2022-07-29T07:25:10;24.50;48.90
3330;DHT22;1677;49.576;10.990;2022-07-29T07:27:37;24.50;48.90
3330;DHT22;1677;49.576;10.990;2022-07-29T07:30:04;24.40;49.30
3330;DHT22;1677;49.576;10.990;2022-07-29T07:32:34;24.20;49.50
3330;DHT22;1677;49.576;10.990;2022-07-29T07:34:59;24.10;50.30
3330;DHT22;1677;49.576;10.990;2022-07-29T07:37:25;23.90;50.60
3330;DHT22;1677;49.576;10.990;2022-07-29T07:39:52;23.70;51.30
3330;DHT22;1677;49.576;10.990;2022-07-29T07:42:18;23.60;51.90
3330;DHT22;1677;49.576;10.990;2022-07-29T07:44:44;23.60;52.00
3330;DHT22;1677;49.576;10.990;2022-07-29T07:47:12;23.60;51.80
3330;DHT22;1677;49.576;10.990;2022-07-29T07:49:38;23.60;52.50
3330;DHT22;1677;49.576;10.990;2022-07-29T07:52:04;23.60;52.70
3330;DHT22;1677;49.576;10.990;2022-07-29T07:54:29;23.90;52.60
3330;DHT22;1677;49.576;10.990;2022-07-29T07:56:55;24.40;51.50
3330;DHT22;1677;49.576;10.990;2022-07-29T07:59:21;25.00;50.20
3330;DHT22;1677;49.576;10.990;2022-07-29T08:01:46;25.50;48.80
3330;DHT22;1677;49.576;10.990;2022-07-29T08:04:12;25.70;48.20
3330;DHT22;1677;49.576;10.990;2022-07-29T08:06:37;25.70;47.90
3330;DHT22;1677;49.576;10.990;2022-07-29T08:09:04;25.50;48.60
3330;DHT22;1677;49.576;10.990;2022-07-29T08:11:30;25.20;49.60
3330;DHT22;1677;49.576;10.990;2022-07-29T08:13:55;24.90;50.00
3330;DHT22;1677;49.576;10.990;2022-07-29T08:16:21;24.80;50.70
3330;DHT22;1677;49.576;10.990;2022-07-29T08:18:47;24.60;50.90
3330;DHT22;1677;49.576;10.990;2022-07-29T08:21:16;24.50;51.40
3330;DHT22;1677;49.576;10.990;2022-07-29T08:23:44;24.40;51.60
3330;DHT22;1677;49.576;10.990;2022-07-29T08:26:15;24.30;52.20
3330;DHT22;1677;49.576;10.990;2022-07-29T08:28:43;24.20;52.80
3330;DHT22;1677;49.576;10.990;2022-07-29T08:31:12;24.30;53.10
3330;DHT22;1677;49.576;10.990;2022-07-29T08:33:38;24.50;53.40
3330;DHT22;1677;49.576;10.990;2022-07-29T08:36:05;25.00;51.50
3330;DHT22;1677;49.576;10.990;2022-07-29T08:38:31;25.60;50.10
3330;DHT22;1677;49.576;10.990;2022-07-29T08:40:56;26.10;49.10
3330;DHT22;1677;49.576;10.990;2022-07-29T08:43:23;26.50;47.90
3330;DHT22;1677;49.576;10.990;2022-07-29T08:45:50;26.60;48.10
3330;DHT22;1677;49.576;10.990;2022-07-29T08:48:18;26.40;48.30
3330;DHT22;1677;49.576;10.990;2022-07-29T08:50:45;26.20;48.70
3330;DHT22;1677;49.576;10.990;2022-07-29T08:53:13;26.10;49.30
3330;DHT22;1677;49.576;10.990;2022-07-29T08:55:46;26.00;50.10
3330;DHT22;1677;49.576;10.990;2022-07-29T08:58:13;25.90;50.90
3330;DHT22;1677;49.576;10.990;2022-07-29T09:00:44;25.70;50.10
3330;DHT22;1677;49.576;10.990;2022-07-29T09:03:14;25.60;50.50
3330;DHT22;1677;49.576;10.990;2022-07-29T09:05:43;25.60;50.80
3330;DHT22;1677;49.576;10.990;2022-07-29T09:08:10;25.50;50.80
3330;DHT22;1677;49.576;10.990;2022-07-29T09:10:36;25.60;51.10
3330;DHT22;1677;49.576;10.990;2022-07-29T09:13:02;25.70;50.90
3330;DHT22;1677;49.576;10.990;2022-07-29T09:15:28;26.20;50.10
3330;DHT22;1677;49.576;10.990;2022-07-29T09:17:53;26.80;48.60
3330;DHT22;1677;49.576;10.990;2022-07-29T09:20:21;27.60;46.70
3330;DHT22;1677;49.576;10.990;2022-07-29T09:22:48;27.70;46.10
3330;DHT22;1677;49.576;10.990;2022-07-29T09:25:36;27.80;45.80
3330;DHT22;1677;49.576;10.990;2022-07-29T09:28:13;27.50;46.50
3330;DHT22;1677;49.576;10.990;2022-07-29T09:30:55;27.50;46.60
3330;DHT22;1677;49.576;10.990;2022-07-29T09:33:22;27.20;47.20
3330;DHT22;1677;49.576;10.990;2022-07-29T09:36:06;27.00;47.30
3330;DHT22;1677;49.576;10.990;2022-07-29T09:38:33;26.60;48.00
3330;DHT22;1677;49.576;10.990;2022-07-29T09:41:02;26.60;48.30
3330;DHT22;1677;49.576;10.990;2022-07-29T09:43:28;26.60;48.70
3330;DHT22;1677;49.576;10.990;2022-07-29T09:45:54;26.60;48.80
3330;DHT22;1677;49.576;10.990;2022-07-29T09:48:23;26.60;49.10
3330;DHT22;1677;49.576;10.990;2022-07-29T09:50:49;26.70;48.40
3330;DHT22;1677;49.576;10.990;2022-07-29T09:55:58;27.60;46.80
3330;DHT22;1677;49.576;10.990;2022-07-29T09:58:24;27.90;45.80
3330;DHT22;1677;49.576;10.990;2022-07-29T10:00:51;28.20;45.50
3330;DHT22;1677;49.576;10.990;2022-07-29T10:03:17;28.50;44.50
3330;DHT22;1677;49.576;10.990;2022-07-29T10:05:43;28.40;44.00
3330;DHT22;1677;49.576;10.990;2022-07-29T10:08:10;28.30;44.50
3330;DHT22;1677;49.576;10.990;2022-07-29T10:10:40;28.10;45.10
3330;DHT22;1677;49.576;10.990;2022-07-29T10:13:11;27.90;45.00
3330;DHT22;1677;49.576;10.990;2022-07-29T10:15:42;27.70;45.80
3330;DHT22;1677;49.576;10.990;2022-07-29T10:18:11;27.70;46.10
3330;DHT22;1677;49.576;10.990;2022-07-29T10:20:37;27.90;45.80
3330;DHT22;1677;49.576;10.990;2022-07-29T10:23:04;27.80;45.80
3330;DHT22;1677;49.576;10.990;2022-07-29T10:25:30;27.70;46.50
3330;DHT22;1677;49.576;10.990;2022-07-29T10:27:55;27.60;46.90
3330;DHT22;1677;49.576;10.990;2022-07-29T10:30:23;27.80;46.60
3330;DHT22;1677;49.576;10.990;2022-07-29T10:33:34;28.30;45.20
3330;DHT22;1677;49.576;10.990;2022-07-29T10:39:08;29.60;42.90
3330;DHT22;1677;49.576;10.990;2022-07-29T10:41:56;29.70;42.50
3330;DHT22;1677;49.576;10.990;2022-07-29T10:44:25;29.70;42.20
3330;DHT22;1677;49.576;10.990;2022-07-29T10:46:52;29.70;42.40
3330;DHT22;1677;49.576;10.990;2022-07-29T10:49:25;29.50;42.70
3330;DHT22;1677;49.576;10.990;2022-07-29T10:52:08;29.50;42.20
3330;DHT22;1677;49.576;10.990;2022-07-29T10:57:27;29.50;41.50
3330;DHT22;1677;49.576;10.990;2022-07-29T11:05:03;29.50;42.50
3330;DHT22;1677;49.576;10.990;2022-07-29T11:07:29;29.70;42.40
3330;DHT22;1677;49.576;10.990;2022-07-29T11:15:04;32.00;38.80
3330;DHT22;1677;49.576;10.990;2022-07-29T11:20:43;32.90;37.00
3330;DHT22;1677;49.576;10.990;2022-07-29T11:23:28;33.10;36.50
3330;DHT22;1677;49.576;10.990;2022-07-29T11:26:13;33.30;36.30
3330;DHT22;1677;49.576;10.990;2022-07-29T11:28:57;32.90;36.40
3330;DHT22;1677;49.576;10.990;2022-07-29T11:32:10;32.60;37.20
3330;DHT22;1677;49.576;10.990;2022-07-29T11:34:36;32.30;37.90
3330;DHT22;1677;49.576;10.990;2022-07-29T11:45:00;31.80;38.70
3330;DHT22;1677;49.576;10.990;2022-07-29T11:47:27;32.10;39.30
3330;DHT22;1677;49.576;10.990;2022-07-29T11:49:54;32.40;37.70
3330;DHT22;1677;49.576;10.990;2022-07-29T11:52:20;32.90;38.20
3330;DHT22;1677;49.576;10.990;2022-07-29T11:54:48;33.40;36.80
3330;DHT22;1677;49.576;10.990;2022-07-29T11:57:18;33.50;36.30
3330;DHT22;1677;49.576;10.990;2022-07-29T11:59:45;33.80;36.30
3330;DHT22;1677;49.576;10.990;2022-07-29T12:02:12;34.00;36.00
3330;DHT22;1677;49.576;10.990;2022-07-29T12:04:57;33.80;36.40
3330;DHT22;1677;49.576;10.990;2022-07-29T12:07:32;33.60;36.10
3330;DHT22;1677;49.576;10.990;2022-07-29T12:09:58;33.40;36.60
3330;DHT22;1677;49.576;10.990;2022-07-29T12:12:24;33.10;37.10
3330;DHT22;1677;49.576;10.990;2022-07-29T12:14:50;32.90;37.00
3330;DHT22;1677;49.576;10.990;2022-07-29T12:17:33;32.60;37.70
3330;DHT22;1677;49.576;10.990;2022-07-29T12:20:02;32.50;38.10
3330;DHT22;1677;49.576;10.990;2022-07-29T12:22:30;32.20;38.80
3330;DHT22;1677;49.576;10.990;2022-07-29T12:25:01;32.50;39.30
3330;DHT22;1677;49.576;10.990;2022-07-29T12:27:28;33.10;37.50
3330;DHT22;1677;49.576;10.990;2022-07-29T12:29:57;33.90;36.50
3330;DHT22;1677;49.576;10.990;2022-07-29T12:32:23;34.50;35.90
3330;DHT22;1677;49.576;10.990;2022-07-29T12:34:49;34.70;35.40
3330;DHT22;1677;49.576;10.990;2022-07-29T12:37:16;34.70;34.90
3330;DHT22;1677;49.576;10.990;2022-07-29T12:39:42;34.70;34.90
3330;DHT22;1677;49.576;10.990;2022-07-29T12:42:15;34.50;34.60
3330;DHT22;1677;49.576;10.990;2022-07-29T12:44:48;34.10;34.80
3330;DHT22;1677;49.576;10.990;2022-07-29T12:47:14;33.70;35.80
3330;DHT22;1677;49.576;10.990;2022-07-29T12:49:40;33.20;36.70
3330;DHT22;1677;49.576;10.990;2022-07-29T12:52:29;32.90;36.70
3330;DHT22;1677;49.576;10.990;2022-07-29T12:54:55;32.70;36.30
3330;DHT22;1677;49.576;10.990;2022-07-29T12:57:20;32.60;36.80
3330;DHT22;1677;49.576;10.990;2022-07-29T13:00:00;32.50;36.70
3330;DHT22;1677;49.576;10.990;2022-07-29T13:02:25;32.50;36.40
3330;DHT22;1677;49.576;10.990;2022-07-29T13:04:56;32.70;36.00
3330;DHT22;1677;49.576;10.990;2022-07-29T13:07:28;33.30;35.10
3330;DHT22;1677;49.576;10.990;2022-07-29T13:10:15;33.90;34.20
3330;DHT22;1677;49.576;10.990;2022-07-29T13:13:07;34.50;32.90
3330;DHT22;1677;49.576;10.990;2022-07-29T13:15:35;34.90;32.30
3330;DHT22;1677;49.576;10.990;2022-07-29T13:18:01;35.00;31.70
3330;DHT22;1677;49.576;10.990;2022-07-29T13:20:28;35.00;31.80
3330;DHT22;1677;49.576;10.990;2022-07-29T13:22:59;35.10;31.50
3330;DHT22;1677;49.576;10.990;2022-07-29T13:25:31;35.30;31.10
3330;DHT22;1677;49.576;10.990;2022-07-29T13:27:58;35.20;30.80
3330;DHT22;1677;49.576;10.990;2022-07-29T13:30:24;34.70;30.10
3330;DHT22;1677;49.576;10.990;2022-07-29T13:32:51;34.30;30.90
3330;DHT22;1677;49.576;10.990;2022-07-29T13:35:17;34.00;31.40
3330;DHT22;1677;49.576;10.990;2022-07-29T13:37:43;33.70;31.60
3330;DHT22;1677;49.576;10.990;2022-07-29T13:40:10;33.40;32.60
3330;DHT22;1677;49.576;10.990;2022-07-29T13:42:36;33.00;33.10
3330;DHT22;1677;49.576;10.990;2022-07-29T13:45:02;32.70;33.90
3330;DHT22;1677;49.576;10.990;2022-07-29T13:47:28;32.50;34.00
3330;DHT22;1677;49.576;10.990;2022-07-29T13:49:54;32.80;33.70
3330;DHT22;1677;49.576;10.990;2022-07-29T13:52:20;33.20;33.00
3330;DHT22;1677;49.576;10.990;2022-07-29T13:54:46;33.50;32.50
3330;DHT22;1677;49.576;10.990;2022-07-29T13:57:12;33.90;32.00
3330;DHT22;1677;49.576;10.990;2022-07-29T13:59:39;34.10;31.50
3330;DHT22;1677;49.576;10.990;2022-07-29T14:02:05;34.30;31.40
3330;DHT22;1677;49.576;10.990;2022-07-29T14:04:31;34.30;31.60
3330;DHT22;1677;49.576;10.990;2022-07-29T14:06:57;34.10;32.80
3330;DHT22;1677;49.576;10.990;2022-07-29T14:09:22;33.50;33.30
3330;DHT22;1677;49.576;10.990;2022-07-29T14:11:48;33.00;34.70
3330;DHT22;1677;49.576;10.990;2022-07-29T14:14:15;32.30;35.90
3330;DHT22;1677;49.576;10.990;2022-07-29T14:16:41;31.70;37.20
3330;DHT22;1677;49.576;10.990;2022-07-29T14:19:06;31.30;38.20
3330;DHT22;1677;49.576;10.990;2022-07-29T14:21:32;30.90;39.40
3330;DHT22;1677;49.576;10.990;2022-07-29T14:23:58;30.70;46.60
3330;DHT22;1677;49.576;10.990;2022-07-29T14:26:23;30.40;54.10
3330;DHT22;1677;49.576;10.990;2022-07-29T14:28:49;29.90;57.40
3330;DHT22;1677;49.576;10.990;2022-07-29T14:31:15;29.60;57.80
3330;DHT22;1677;49.576;10.990;2022-07-29T14:33:41;29.90;57.40
3330;DHT22;1677;49.576;10.990;2022-07-29T14:36:08;30.20;55.70
3330;DHT22;1677;49.576;10.990;2022-07-29T14:38:34;30.30;56.50
3330;DHT22;1677;49.576;10.990;2022-07-29T14:41:00;30.00;56.60
3330;DHT22;1677;49.576;10.990;2022-07-29T14:43:26;29.30;60.40
3330;DHT22;1677;49.576;10.990;2022-07-29T14:45:51;28.70;62.50
3330;DHT22;1677;49.576;10.990;2022-07-29T14:48:17;28.00;65.50
3330;DHT22;1677;49.576;10.990;2022-07-29T14:50:43;27.40;69.90
3330;DHT22;1677;49.576;10.990;2022-07-29T14:53:08;26.80;74.30
3330;DHT22;1677;49.576;10.990;2022-07-29T14:55:34;26.30;77.40
3330;DHT22;1677;49.576;10.990;2022-07-29T14:58:00;25.90;81.30
3330;DHT22;1677;49.576;10.990;2022-07-29T15:00:26;25.70;83.40
3330;DHT22;1677;49.576;10.990;2022-07-29T15:02:52;25.50;86.10
3330;DHT22;1677;49.576;10.990;2022-07-29T15:05:17;25.30;88.40
3330;DHT22;1677;49.576;10.990;2022-07-29T15:07:43;25.20;90.60
3330;DHT22;1677;49.576;10.990;2022-07-29T15:10:08;25.40;88.70
3330;DHT22;1677;49.576;10.990;2022-07-29T15:12:34;26.10;84.70
3330;DHT22;1677;49.576;10.990;2022-07-29T15:15:00;26.80;82.40
3330;DHT22;1677;49.576;10.990;2022-07-29T15:17:25;27.40;79.60
3330;DHT22;1677;49.576;10.990;2022-07-29T15:19:51;27.70;77.80
3330;DHT22;1677;49.576;10.990;2022-07-29T15:22:17;27.80;77.40
3330;DHT22;1677;49.576;10.990;2022-07-29T15:24:42;27.10;83.40
3330;DHT22;1677;49.576;10.990;2022-07-29T15:27:09;26.60;84.70
3330;DHT22;1677;49.576;10.990;2022-07-29T15:29:42;26.00;88.00
3330;DHT22;1677;49.576;10.990;2022-07-29T15:32:08;25.60;90.80
3330;DHT22;1677;49.576;10.990;2022-07-29T15:34:34;25.20;91.10
3330;DHT22;1677;49.576;10.990;2022-07-29T15:37:00;25.00;92.70
3330;DHT22;1677;49.576;10.990;2022-07-29T15:39:26;24.60;94.30
3330;DHT22;1677;49.576;10.990;2022-07-29T15:41:51;24.30;95.70
3330;DHT22;1677;49.576;10.990;2022-07-29T15:44:17;24.10;96.70
3330;DHT22;1677;49.576;10.990;2022-07-29T15:46:43;24.20;96.50
3330;DHT22;1677;49.576;10.990;2022-07-29T15:49:27;24.40;95.40
3330;DHT22;1677;49.576;10.990;2022-07-29T15:52:02;25.20;93.60
3330;DHT22;1677;49.576;10.990;2022-07-29T15:54:31;25.60;92.00
3330;DHT22;1677;49.576;10.990;2022-07-29T15:56:57;26.20;91.10
3330;DHT22;1677;49.576;10.990;2022-07-29T15:59:23;26.10;90.20
3330;DHT22;1677;49.576;10.990;2022-07-29T16:01:49;25.70;91.60
3330;DHT22;1677;49.576;10.990;2022-07-29T16:04:15;25.10;91.90
3330;DHT22;1677;49.576;10.990;2022-07-29T16:06:42;24.60;93.20
3330;DHT22;1677;49.576;10.990;2022-07-29T16:09:08;24.20;94.50
3330;DHT22;1677;49.576;10.990;2022-07-29T16:11:33;23.90;95.40
3330;DHT22;1677;49.576;10.990;2022-07-29T16:13:59;23.60;96.10
3330;DHT22;1677;49.576;10.990;2022-07-29T16:16:25;23.20;96.90
3330;DHT22;1677;49.576;10.990;2022-07-29T16:18:50;23.00;98.20
3330;DHT22;1677;49.576;10.990;2022-07-29T16:21:16;22.90;98.60
3330;DHT22;1677;49.576;10.990;2022-07-29T16:23:42;22.90;99.20
3330;DHT22;1677;49.576;10.990;2022-07-29T16:26:07;23.40;98.50
3330;DHT22;1677;49.576;10.990;2022-07-29T16:28:33;24.00;97.00
3330;DHT22;1677;49.576;10.990;2022-07-29T16:30:59;24.50;95.70